Vanquish — PHCU — position and weather

sailwx.info

Track history (hours):
 
Tides and Currents Weather Stations Pressure Air Temp Water Temp Dewpoint Dewpoint Depression Visibility Wind Speed Wind Dir Waves Ship Positions

Vanquish

Last reported at 2015-Jul-28 19:32 UTC. Time now 2015-Jul-28 19:47 UTC.
Position N 54°03' W 006°10'.

MMSI: 246138952.

Date/timePositionNaut miles runAvg speedWind from/ knotsBaromVisibWave heightAir tempDewpointWater temp
2015-Jul-28 19:32N 54°03' W 006°10'1 0.0
2015-Jul-26 20:28N 54°04' W 006°12'1111.6
2015-Jul-26 19:33N 53°57' W 005°59'1311.3
2015-Jul-26 18:26N 53°45' W 005°51'17210.2
2015-Jul-26 01:33N 51°23' W 003°11'1312.8
2015-Jul-26 00:33N 51°28' W 002°52'6 6.2
2015-Jul-25 23:33N 51°30' W 002°42'0 0.2
2015-Jul-25 22:33N 51°31' W 002°42'0 0.0
2015-Jul-25 21:33N 51°31' W 002°42'0 0.0
2015-Jul-25 20:33N 51°31' W 002°42'0 0.0
2015-Jul-25 19:33N 51°31' W 002°42'0 0.0
2015-Jul-25 18:33N 51°31' W 002°42'0 0.0
2015-Jul-25 17:33N 51°31' W 002°42'0 0.0
2015-Jul-25 16:33N 51°31' W 002°42'0 0.0
2015-Jul-25 15:33N 51°31' W 002°42'0 0.0
2015-Jul-25 14:33N 51°31' W 002°42'1 0.6
2015-Jul-25 13:33N 51°30' W 002°43'1212.1
2015-Jul-25 12:33N 51°26' W 003°01'10411.6
2015-Jul-25 03:33N 52°12' W 005°32'8413.5
2015-Jul-24 21:21N 53°35' W 005°50'1214.6
2015-Jul-24 20:33N 53°46' W 005°56'1414.5
2015-Jul-24 19:34N 54°00' W 006°02'7 0.5
2015-Jul-24 04:29N 54°04' W 006°12'8 8.4
2015-Jul-24 03:33N 53°59' W 006°02'1212.0
2015-Jul-24 02:33N 53°48' W 005°56'17710.7
2015-Jul-23 10:05N 51°24' W 003°08'612.1
2015-Jul-23 09:34N 51°27' W 002°59'1110.5
2015-Jul-23 08:33N 51°30' W 002°43'0 0.4
2015-Jul-23 07:32N 51°31' W 002°42'0 0.0
2015-Jul-23 06:32N 51°31' W 002°42'0 0.0
2015-Jul-23 05:31N 51°31' W 002°42'0 0.0
2015-Jul-23 04:31N 51°31' W 002°42'0 0.0
2015-Jul-23 03:31N 51°31' W 002°42'0 0.0
2015-Jul-23 02:31N 51°31' W 002°42'0 0.0
2015-Jul-23 01:32N 51°31' W 002°42'0 0.0
2015-Jul-23 00:31N 51°31' W 002°42'0 0.0
2015-Jul-22 23:31N 51°31' W 002°42'0 0.0
2015-Jul-22 22:31N 51°31' W 002°42'0 0.0
2015-Jul-22 21:31N 51°31' W 002°42'0 0.5
2015-Jul-22 20:34N 51°30' W 002°43'1 0.5
2015-Jul-22 19:33N 51°31' W 002°43'170 7.7
2015-Jul-21 21:33N 53°37' W 005°51'1212.0
2015-Jul-21 20:33N 53°48' W 005°57'1212.2
2015-Jul-21 19:33N 54°00' W 006°02'10 0.3
2015-Jul-20 05:32N 54°06' W 006°16'0 0.1
2015-Jul-20 04:14N 54°06' W 006°16'3 4.1
2015-Jul-20 03:32N 54°04' W 006°12'1111.0
2015-Jul-20 02:34N 53°56' W 006°00'1210.9
2015-Jul-20 01:29N 53°45' W 005°54'17211.2
2015-Jul-19 10:06N 51°23' W 003°13'814.7
2015-Jul-19 09:33N 51°26' W 003°01'1212.0
2015-Jul-19 08:33N 51°30' W 002°43'1 0.8
2015-Jul-19 07:31N 51°31' W 002°42'0 0.0
2015-Jul-19 06:31N 51°31' W 002°42'0 0.0
2015-Jul-19 05:31N 51°31' W 002°42'0 0.1
2015-Jul-19 04:31N 51°31' W 002°42'0 0.0
2015-Jul-19 00:31N 51°31' W 002°42'0 0.0
2015-Jul-18 23:31N 51°31' W 002°42'0 0.0
2015-Jul-18 22:31N 51°31' W 002°42'0 0.0
2015-Jul-18 21:31N 51°31' W 002°42'0 0.0
2015-Jul-18 20:31N 51°31' W 002°42'0 0.5
2015-Jul-18 19:34N 51°30' W 002°43'  
Track history (hours):
 
Tides and Currents Weather Stations Pressure Air Temp Water Temp Dewpoint Dewpoint Depression Visibility Wind Speed Wind Dir Waves Ship Positions

Vanquish

Last reported at 2015-Jul-28 19:32 UTC. Time now 2015-Jul-28 19:47 UTC.
Position N 54°03' W 006°10'.

MMSI: 246138952.

Date/timePositionNaut miles runAvg speedWind from/ knotsBaromVisibWave heightAir tempDewpointWater temp
2015-Jul-28 19:32N 54°03' W 006°10'1 0.0
2015-Jul-26 20:28N 54°04' W 006°12'1111.6
2015-Jul-26 19:33N 53°57' W 005°59'1311.3
2015-Jul-26 18:26N 53°45' W 005°51'17210.2
2015-Jul-26 01:33N 51°23' W 003°11'1312.8
2015-Jul-26 00:33N 51°28' W 002°52'6 6.2
2015-Jul-25 23:33N 51°30' W 002°42'0 0.2
2015-Jul-25 22:33N 51°31' W 002°42'0 0.0
2015-Jul-25 21:33N 51°31' W 002°42'0 0.0
2015-Jul-25 20:33N 51°31' W 002°42'0 0.0
2015-Jul-25 19:33N 51°31' W 002°42'0 0.0
2015-Jul-25 18:33N 51°31' W 002°42'0 0.0
2015-Jul-25 17:33N 51°31' W 002°42'0 0.0
2015-Jul-25 16:33N 51°31' W 002°42'0 0.0
2015-Jul-25 15:33N 51°31' W 002°42'0 0.0
2015-Jul-25 14:33N 51°31' W 002°42'1 0.6
2015-Jul-25 13:33N 51°30' W 002°43'1212.1
2015-Jul-25 12:33N 51°26' W 003°01'10411.6
2015-Jul-25 03:33N 52°12' W 005°32'8413.5
2015-Jul-24 21:21N 53°35' W 005°50'1214.6
2015-Jul-24 20:33N 53°46' W 005°56'1414.5
2015-Jul-24 19:34N 54°00' W 006°02'7 0.5
2015-Jul-24 04:29N 54°04' W 006°12'8 8.4
2015-Jul-24 03:33N 53°59' W 006°02'1212.0
2015-Jul-24 02:33N 53°48' W 005°56'17710.7
2015-Jul-23 10:05N 51°24' W 003°08'612.1
2015-Jul-23 09:34N 51°27' W 002°59'1110.5
2015-Jul-23 08:33N 51°30' W 002°43'0 0.4
2015-Jul-23 07:32N 51°31' W 002°42'0 0.0
2015-Jul-23 06:32N 51°31' W 002°42'0 0.0
2015-Jul-23 05:31N 51°31' W 002°42'0 0.0
2015-Jul-23 04:31N 51°31' W 002°42'0 0.0
2015-Jul-23 03:31N 51°31' W 002°42'0 0.0
2015-Jul-23 02:31N 51°31' W 002°42'0 0.0
2015-Jul-23 01:32N 51°31' W 002°42'0 0.0
2015-Jul-23 00:31N 51°31' W 002°42'0 0.0
2015-Jul-22 23:31N 51°31' W 002°42'0 0.0
2015-Jul-22 22:31N 51°31' W 002°42'0 0.0
2015-Jul-22 21:31N 51°31' W 002°42'0 0.5
2015-Jul-22 20:34N 51°30' W 002°43'1 0.5
2015-Jul-22 19:33N 51°31' W 002°43'170 7.7
2015-Jul-21 21:33N 53°37' W 005°51'1212.0
2015-Jul-21 20:33N 53°48' W 005°57'1212.2
2015-Jul-21 19:33N 54°00' W 006°02'10 0.3
2015-Jul-20 05:32N 54°06' W 006°16'0 0.1
2015-Jul-20 04:14N 54°06' W 006°16'3 4.1
2015-Jul-20 03:32N 54°04' W 006°12'1111.0
2015-Jul-20 02:34N 53°56' W 006°00'1210.9
2015-Jul-20 01:29N 53°45' W 005°54'17211.2
2015-Jul-19 10:06N 51°23' W 003°13'814.7
2015-Jul-19 09:33N 51°26' W 003°01'1212.0
2015-Jul-19 08:33N 51°30' W 002°43'1 0.8
2015-Jul-19 07:31N 51°31' W 002°42'0 0.0
2015-Jul-19 06:31N 51°31' W 002°42'0 0.0
2015-Jul-19 05:31N 51°31' W 002°42'0 0.1
2015-Jul-19 04:31N 51°31' W 002°42'0 0.0
2015-Jul-19 00:31N 51°31' W 002°42'0 0.0
2015-Jul-18 23:31N 51°31' W 002°42'0 0.0
2015-Jul-18 22:31N 51°31' W 002°42'0 0.0
2015-Jul-18 21:31N 51°31' W 002°42'0 0.0
2015-Jul-18 20:31N 51°31' W 002°42'0 0.5
2015-Jul-18 19:34N 51°30' W 002°43'  

Dump ship's entire track history